Time;durP1;ratioP1;P1;durP2;ratioP2;P2;SDS_P1;SDS_P2;PMS_P1;PMS_P2;Temp;Humidity;BMP_temperature;BMP_pressure;BME280_temperature;BME280_humidity;BME280_pressure;Samples;Min_cycle;Max_cycle;Signal;HPM_P1;HPM_P2
2021/07/26 00:04:42;;;;;;;1.08;0.82;;;17.50;99.90;;;;;;4864814;29;20376;-93
2021/07/26 00:07:08;;;;;;;0.10;0.10;;;17.30;99.90;;;;;;4850607;29;20030;-93
2021/07/26 00:09:37;;;;;;;0.43;0.43;;;17.20;99.90;;;;;;4864550;29;20037;-92
2021/07/26 00:12:07;;;;;;;1.45;0.77;;;17.10;99.90;;;;;;4849778;29;20030;-92
2021/07/26 00:14:36;;;;;;;0.75;0.55;;;17.00;99.90;;;;;;4849044;29;20045;-92
2021/07/26 00:17:05;;;;;;;0.60;0.43;;;16.90;99.90;;;;;;4849299;29;20057;-92
2021/07/26 00:19:31;;;;;;;1.30;0.60;;;16.90;99.90;;;;;;4849548;29;20044;-92
2021/07/26 00:21:57;;;;;;;0.95;0.60;;;16.90;99.90;;;;;;4849702;29;20025;-92
2021/07/26 00:24:23;;;;;;;1.30;1.23;;;16.90;99.90;;;;;;4849061;29;20030;-92
2021/07/26 00:26:54;;;;;;;0.80;0.73;;;16.80;99.90;;;;;;4848463;29;20120;-92
2021/07/26 00:29:20;;;;;;;0.10;0.10;;;16.60;99.90;;;;;;4849055;29;20121;-93
2021/07/26 00:31:46;;;;;;;0.10;0.10;;;16.60;99.90;;;;;;4849553;29;20049;-92
2021/07/26 00:34:15;;;;;;;1.58;1.48;;;16.80;99.90;;;;;;4850195;29;20041;-93
2021/07/26 00:36:46;;;;;;;0.65;0.45;;;16.80;99.90;;;;;;4848384;29;20447;-93
2021/07/26 00:39:20;;;;;;;0.10;0.10;;;16.80;99.90;;;;;;4849704;29;20033;-92
2021/07/26 00:41:47;;;;;;;0.10;0.10;;;16.90;99.90;;;;;;4849650;29;20101;-92
2021/07/26 00:44:21;;;;;;;0.10;0.10;;;17.00;99.90;;;;;;4850105;29;20543;-92
2021/07/26 00:46:48;;;;;;;0.03;0.03;;;17.10;99.90;;;;;;4850909;29;20105;-91
2021/07/26 00:49:31;;;;;;;0.20;0.20;;;17.20;99.90;;;;;;4854203;29;20037;-92
2021/07/26 00:51:58;;;;;;;0.00;0.00;;;17.30;99.90;;;;;;4852179;29;20089;-92
2021/07/26 00:54:38;;;;;;;0.00;0.00;;;17.40;99.90;;;;;;4850588;29;20037;-93
2021/07/26 00:57:09;;;;;;;0.03;0.03;;;17.40;99.90;;;;;;4850537;29;20025;-93
2021/07/26 00:59:36;;;;;;;0.10;0.10;;;17.50;99.90;;;;;;4851628;29;20448;-93
2021/07/26 01:02:02;;;;;;;0.05;0.05;;;17.60;99.90;;;;;;4851985;29;20059;-92
2021/07/26 01:04:34;;;;;;;1.08;0.63;;;17.70;99.90;;;;;;4852831;29;20021;-92
2021/07/26 01:07:02;;;;;;;0.03;0.03;;;17.70;99.90;;;;;;4853352;29;20033;-92
2021/07/26 01:09:31;;;;;;;0.05;0.05;;;17.60;99.90;;;;;;4854200;29;20029;-92
2021/07/26 01:12:00;;;;;;;0.00;0.00;;;17.70;99.90;;;;;;4868046;29;20074;-90
2021/07/26 01:14:29;;;;;;;0.00;0.00;;;17.80;99.90;;;;;;4868060;29;20025;-90
2021/07/26 01:16:54;;;;;;;0.10;0.10;;;17.90;99.90;;;;;;4868096;29;20025;-89
2021/07/26 01:19:23;;;;;;;0.00;0.00;;;17.80;99.90;;;;;;4867947;29;20025;-89
2021/07/26 01:21:51;;;;;;;0.08;0.08;;;17.90;99.90;;;;;;4867770;29;20025;-90
2021/07/26 01:24:19;;;;;;;0.60;0.60;;;17.90;99.90;;;;;;4868067;29;20014;-91
2021/07/26 01:26:48;;;;;;;0.10;0.10;;;17.70;99.90;;;;;;4868811;29;20094;-90
2021/07/26 01:29:17;;;;;;;0.10;0.10;;;17.40;99.90;;;;;;4868193;29;20026;-90
2021/07/26 01:31:43;;;;;;;0.10;0.10;;;17.30;99.90;;;;;;4867946;29;20021;-89
2021/07/26 01:34:12;;;;;;;0.08;0.08;;;17.20;99.90;;;;;;4868142;29;20026;-90
2021/07/26 01:36:39;;;;;;;0.10;0.10;;;17.20;99.90;;;;;;4869628;29;20037;-90
2021/07/26 01:39:05;;;;;;;0.20;0.20;;;17.30;99.90;;;;;;4870935;29;20040;-93
2021/07/26 01:41:37;;;;;;;0.10;0.10;;;17.20;99.90;;;;;;4853059;29;20490;-92
2021/07/26 01:44:06;;;;;;;0.00;0.00;;;17.20;99.90;;;;;;4852288;29;20097;-92
2021/07/26 01:46:53;;;;;;;0.00;0.00;;;17.10;99.90;;;;;;4853711;29;20101;-92
2021/07/26 01:49:46;;;;;;;0.05;0.05;;;17.40;99.90;;;;;;4854746;29;20049;-92
2021/07/26 01:52:17;;;;;;;0.00;0.00;;;17.70;99.90;;;;;;4854912;29;20033;-93
2021/07/26 01:54:46;;;;;;;0.10;0.10;;;17.80;99.90;;;;;;4854123;29;20395;-92
2021/07/26 01:57:16;;;;;;;0.10;0.10;;;17.70;99.90;;;;;;4854643;29;20021;-92
2021/07/26 01:59:51;;;;;;;0.10;0.10;;;17.60;99.90;;;;;;4852767;29;20110;-92
2021/07/26 02:02:19;;;;;;;0.10;0.10;;;17.50;99.90;;;;;;4854819;29;20411;-92
2021/07/26 02:04:47;;;;;;;0.10;0.10;;;17.50;99.90;;;;;;4853489;29;20522;-92
2021/07/26 02:07:18;;;;;;;0.00;0.00;;;17.60;99.90;;;;;;4854284;29;20026;-92
2021/07/26 02:09:44;;;;;;;2.67;0.52;;;17.80;99.90;;;;;;4854082;29;20030;-92
2021/07/26 02:12:12;;;;;;;0.10;0.10;;;17.80;99.90;;;;;;4858196;29;20050;-91
2021/07/26 02:14:44;;;;;;;0.10;0.10;;;17.90;99.90;;;;;;4871161;29;20013;-90
2021/07/26 02:17:10;;;;;;;0.10;0.10;;;17.90;99.90;;;;;;4870716;29;20038;-90
2021/07/26 02:19:42;;;;;;;0.05;0.05;;;17.80;99.90;;;;;;4856996;29;20102;-92
2021/07/26 02:22:08;;;;;;;0.10;0.10;;;17.90;99.90;;;;;;4869221;29;20085;-92
2021/07/26 02:24:42;;;;;;;0.30;0.30;;;18.00;99.90;;;;;;4854014;29;20064;-92
2021/07/26 02:27:08;;;;;;;0.10;0.10;;;18.00;99.90;;;;;;4853770;29;20068;-92
2021/07/26 02:29:34;;;;;;;1.27;1.17;;;17.80;99.90;;;;;;4857964;29;20037;-92
2021/07/26 02:32:00;;;;;;;0.10;0.10;;;17.80;99.90;;;;;;4861669;29;20407;-92
2021/07/26 02:34:29;;;;;;;0.00;0.00;;;17.80;99.90;;;;;;4857180;29;20045;-92
2021/07/26 02:37:00;;;;;;;0.10;0.10;;;17.80;99.90;;;;;;4851928;29;20033;-91
2021/07/26 02:39:26;;;;;;;0.43;0.20;;;17.80;99.90;;;;;;4852688;29;20561;-93
2021/07/26 02:41:54;;;;;;;0.20;0.20;;;17.60;99.90;;;;;;4850858;29;20026;-93
2021/07/26 02:44:23;;;;;;;0.10;0.10;;;17.10;99.90;;;;;;4850355;29;20057;-93
2021/07/26 02:46:48;;;;;;;0.10;0.10;;;16.90;99.90;;;;;;4851167;29;20041;-92
2021/07/26 02:49:14;;;;;;;0.10;0.10;;;16.80;99.90;;;;;;4864618;29;20033;-90
2021/07/26 02:51:40;;;;;;;0.80;0.35;;;16.90;99.90;;;;;;4870932;29;20088;-92
2021/07/26 02:54:09;;;;;;;0.08;0.08;;;16.80;99.90;;;;;;4870423;29;20033;-92
2021/07/26 02:56:35;;;;;;;3.22;2.95;;;16.80;99.90;;;;;;4865772;29;20042;-92
2021/07/26 02:59:00;;;;;;;0.10;0.10;;;16.90;99.90;;;;;;4856418;29;20044;-90
2021/07/26 03:01:32;;;;;;;0.10;0.10;;;17.10;99.90;;;;;;4862568;29;20056;-92
2021/07/26 03:03:59;;;;;;;0.10;0.10;;;17.20;99.90;;;;;;4853106;29;20108;-93
2021/07/26 03:06:25;;;;;;;0.40;0.40;;;17.30;99.90;;;;;;4852369;29;20044;-93
2021/07/26 03:08:51;;;;;;;0.10;0.10;;;17.50;99.90;;;;;;4853177;29;20112;-92
2021/07/26 03:11:24;;;;;;;0.00;0.00;;;17.60;99.90;;;;;;4853321;29;20076;-92
2021/07/26 03:13:50;;;;;;;0.10;0.10;;;17.60;99.90;;;;;;4853118;29;20394;-92
2021/07/26 03:16:24;;;;;;;0.28;0.28;;;17.50;99.90;;;;;;4853550;29;20145;-92
2021/07/26 03:18:56;;;;;;;0.10;0.10;;;17.70;99.90;;;;;;4852143;29;20045;-92
2021/07/26 03:21:25;;;;;;;0.52;0.52;;;17.80;99.90;;;;;;4852341;29;20021;-93
2021/07/26 03:23:54;;;;;;;0.10;0.10;;;17.80;99.90;;;;;;4852794;29;20150;-92
2021/07/26 03:26:23;;;;;;;0.03;0.03;;;17.70;99.90;;;;;;4851533;29;20049;-93
2021/07/26 03:29:00;;;;;;;0.10;0.10;;;17.60;99.90;;;;;;4852244;29;20045;-92
2021/07/26 03:31:31;;;;;;;0.10;0.10;;;17.70;99.90;;;;;;4868685;29;20033;-89
2021/07/26 03:34:00;;;;;;;0.10;0.10;;;17.70;99.90;;;;;;4862389;29;20069;-92
2021/07/26 03:36:29;;;;;;;0.00;0.00;;;17.70;99.90;;;;;;4852081;29;20033;-92
2021/07/26 03:38:57;;;;;;;0.10;0.10;;;17.50;99.90;;;;;;4851373;29;20022;-92
2021/07/26 03:41:23;;;;;;;0.40;0.40;;;17.40;99.90;;;;;;4850731;29;20029;-92
2021/07/26 03:43:54;;;;;;;0.65;0.55;;;17.00;99.90;;;;;;4848633;29;20032;-92
2021/07/26 03:46:25;;;;;;;0.10;0.10;;;16.60;99.90;;;;;;4847195;29;20030;-92
2021/07/26 03:48:57;;;;;;;1.27;1.00;;;16.50;99.90;;;;;;4848059;29;20041;-92
2021/07/26 03:51:28;;;;;;;0.05;0.05;;;16.50;99.90;;;;;;4849831;29;20029;-92
2021/07/26 03:53:54;;;;;;;0.08;0.08;;;16.60;99.90;;;;;;4850411;29;20049;-92
2021/07/26 03:56:19;;;;;;;0.10;0.10;;;16.80;99.90;;;;;;4851521;29;20036;-92
2021/07/26 03:58:45;;;;;;;0.35;0.35;;;16.90;99.90;;;;;;4849887;29;20037;-92
2021/07/26 04:01:19;;;;;;;1.02;1.02;;;16.90;99.90;;;;;;4848626;29;20494;-92
2021/07/26 04:03:46;;;;;;;0.20;0.20;;;16.90;99.90;;;;;;4849995;29;20444;-92
2021/07/26 04:06:26;;;;;;;0.00;0.00;;;16.90;99.90;;;;;;4849709;29;20032;-92
2021/07/26 04:08:53;;;;;;;;;;;16.90;99.90;;;;;;4851646;29;20030;-94
2021/07/26 04:14:14;;;;;;;;;;;17.50;99.90;;;;;;4854233;29;20045;-93
2021/07/26 04:16:39;;;;;;;0.10;0.10;;;17.60;99.90;;;;;;4853408;29;19909;-93
2021/07/26 04:19:11;;;;;;;0.10;0.10;;;17.60;99.90;;;;;;4852469;29;20106;-92
2021/07/26 04:21:40;;;;;;;0.10;0.10;;;17.70;99.90;;;;;;4852531;29;20498;-92
2021/07/26 04:24:06;;;;;;;0.10;0.10;;;17.70;99.90;;;;;;4851244;29;20033;-93
2021/07/26 04:26:31;;;;;;;0.10;0.10;;;17.80;99.90;;;;;;4851258;29;20029;-93
2021/07/26 04:29:00;;;;;;;0.65;0.65;;;17.70;99.90;;;;;;4850875;29;20030;-92
2021/07/26 04:31:29;;;;;;;0.00;0.00;;;17.70;99.90;;;;;;4850795;29;20032;-93
2021/07/26 04:33:57;;;;;;;0.10;0.10;;;17.70;99.90;;;;;;4851836;29;20169;-92
2021/07/26 04:36:33;;;;;;;0.10;0.10;;;17.70;99.90;;;;;;4851139;29;20518;-93
2021/07/26 04:38:59;;;;;;;0.00;0.00;;;17.60;99.90;;;;;;4851775;29;20030;-93
2021/07/26 04:41:31;;;;;;;0.10;0.10;;;17.70;99.90;;;;;;4853859;29;20089;-93
2021/07/26 04:44:08;;;;;;;0.10;0.10;;;17.70;99.90;;;;;;4852380;29;20029;-92
2021/07/26 04:46:37;;;;;;;0.10;0.10;;;17.70;99.90;;;;;;4850798;29;20033;-92
2021/07/26 04:49:07;;;;;;;1.63;1.60;;;17.70;99.90;;;;;;4852476;29;20136;-93
2021/07/26 04:51:36;;;;;;;0.00;0.00;;;17.60;99.90;;;;;;4850933;29;20121;-93
2021/07/26 04:54:08;;;;;;;0.20;0.20;;;17.60;99.90;;;;;;4851259;29;20120;-92
2021/07/26 04:56:39;;;;;;;0.10;0.10;;;17.50;99.90;;;;;;4850787;29;20034;-92
2021/07/26 04:59:05;;;;;;;1.75;0.85;;;17.50;99.90;;;;;;4848695;29;20034;-92
2021/07/26 05:01:31;;;;;;;0.28;0.28;;;17.20;99.90;;;;;;4854508;29;20500;-92
2021/07/26 05:04:44;;;;;;;2.25;1.65;;;16.90;99.90;;;;;;4859106;29;20038;-92
2021/07/26 05:07:31;;;;;;;0.95;0.88;;;16.90;99.90;;;;;;4855322;23;20514;-74
2021/07/26 05:09:57;;;;;;;0.20;0.08;;;16.90;99.90;;;;;;4843183;29;20068;-73
2021/07/26 05:12:26;;;;;;;0.10;0.10;;;16.90;99.90;;;;;;4845570;29;20041;-74
2021/07/26 05:14:53;;;;;;;0.52;0.52;;;17.00;99.90;;;;;;4846261;29;20034;-74
2021/07/26 05:17:28;;;;;;;0.00;0.00;;;17.30;99.90;;;;;;4861385;29;20030;-74
2021/07/26 05:19:54;;;;;;;1.08;1.08;;;17.40;99.90;;;;;;4862847;29;20463;-74
2021/07/26 05:22:20;;;;;;;0.00;0.00;;;17.70;99.90;;;;;;4862501;29;20033;-74
2021/07/26 05:24:46;;;;;;;1.58;1.48;;;17.80;99.90;;;;;;4861583;29;20367;-74
2021/07/26 05:27:13;;;;;;;0.00;0.00;;;18.00;99.90;;;;;;4862635;29;20037;-74
2021/07/26 05:29:39;;;;;;;0.00;0.00;;;18.20;99.90;;;;;;4862742;29;20064;-74
2021/07/26 05:32:06;;;;;;;0.00;0.00;;;18.40;99.90;;;;;;4862460;29;20041;-74
2021/07/26 05:34:32;;;;;;;0.00;0.00;;;18.50;99.90;;;;;;4862641;29;20028;-74
2021/07/26 05:36:57;;;;;;;0.10;0.10;;;18.60;99.90;;;;;;4861385;29;20502;-74
2021/07/26 05:39:24;;;;;;;0.03;0.03;;;18.70;99.90;;;;;;4862354;29;20032;-74
2021/07/26 05:41:51;;;;;;;0.00;0.00;;;18.70;99.90;;;;;;4845886;29;20033;-74
2021/07/26 05:44:17;;;;;;;0.00;0.00;;;18.80;99.90;;;;;;4861203;29;20025;-73
2021/07/26 05:46:42;;;;;;;0.10;0.10;;;18.90;99.90;;;;;;4876015;23;20810;-75
2021/07/26 05:49:08;;;;;;;0.10;0.10;;;18.90;99.90;;;;;;4861212;29;20399;-74
2021/07/26 05:51:34;;;;;;;0.30;0.30;;;18.90;99.90;;;;;;4860965;29;20033;-74
2021/07/26 05:54:00;;;;;;;0.10;0.10;;;18.70;99.90;;;;;;4863764;29;20079;-74
2021/07/26 05:56:28;;;;;;;0.10;0.10;;;18.80;99.90;;;;;;4880726;29;20093;-75
2021/07/26 05:58:55;;;;;;;0.40;0.40;;;18.80;99.90;;;;;;4879158;29;20040;-75
2021/07/26 06:01:23;;;;;;;0.43;0.20;;;18.80;99.90;;;;;;4879885;29;20116;-75
2021/07/26 06:03:50;;;;;;;0.10;0.10;;;18.80;99.90;;;;;;4845248;29;20174;-75
2021/07/26 06:06:17;;;;;;;0.00;0.00;;;18.70;99.90;;;;;;4862112;29;20032;-74
2021/07/26 06:08:43;;;;;;;0.10;0.10;;;18.80;99.90;;;;;;4861662;29;20079;-74
2021/07/26 06:11:09;;;;;;;0.00;0.00;;;18.90;99.90;;;;;;4844918;29;20482;-74
2021/07/26 06:13:35;;;;;;;22.33;1.90;;;19.00;99.90;;;;;;4861663;29;20028;-75
2021/07/26 06:16:06;;;;;;;0.10;0.10;;;19.00;99.90;;;;;;4861720;29;20394;-74
2021/07/26 06:18:32;;;;;;;0.35;0.35;;;18.90;99.90;;;;;;4861805;29;20565;-75
2021/07/26 06:20:58;;;;;;;0.00;0.00;;;18.90;99.90;;;;;;4860187;29;20104;-74
2021/07/26 06:23:25;;;;;;;0.00;0.00;;;18.90;99.90;;;;;;4859365;29;20032;-75
2021/07/26 06:25:51;;;;;;;0.90;0.90;;;18.90;99.90;;;;;;4862672;29;20086;-75
2021/07/26 06:28:17;;;;;;;0.20;0.20;;;18.90;99.90;;;;;;4880053;29;20021;-74
2021/07/26 06:30:42;;;;;;;0.00;0.00;;;18.80;99.90;;;;;;4879927;29;20032;-74
2021/07/26 06:33:12;;;;;;;0.00;0.00;;;18.60;99.90;;;;;;4878680;29;20037;-74
2021/07/26 06:35:37;;;;;;;0.10;0.10;;;18.60;99.90;;;;;;4879832;29;20094;-75
2021/07/26 06:38:03;;;;;;;0.10;0.10;;;18.80;99.90;;;;;;4879916;29;20460;-75
2021/07/26 06:40:31;;;;;;;1.27;1.10;;;18.90;99.90;;;;;;4878114;29;20044;-75
2021/07/26 06:42:57;;;;;;;0.63;0.20;;;19.10;99.90;;;;;;4866281;29;20468;-74
2021/07/26 06:45:23;;;;;;;0.80;0.20;;;19.20;99.90;;;;;;4860440;29;20063;-75
2021/07/26 06:47:49;;;;;;;0.00;0.00;;;19.20;99.90;;;;;;4862508;29;20402;-74
2021/07/26 06:50:15;;;;;;;0.03;0.03;;;19.30;99.90;;;;;;4873590;29;20022;-75
2021/07/26 06:52:41;;;;;;;0.08;0.08;;;19.40;99.90;;;;;;4863673;29;20044;-74
2021/07/26 06:55:07;;;;;;;0.00;0.00;;;19.40;99.90;;;;;;4862681;29;20036;-74
2021/07/26 06:57:34;;;;;;;0.00;0.00;;;19.40;99.90;;;;;;4879467;29;20032;-74
2021/07/26 07:00:00;;;;;;;0.08;0.08;;;19.60;99.90;;;;;;4878264;29;20029;-74
2021/07/26 07:02:25;;;;;;;0.10;0.10;;;19.40;99.90;;;;;;4877978;29;20363;-74
2021/07/26 07:04:51;;;;;;;0.75;0.75;;;19.40;99.90;;;;;;4878096;29;20431;-75
2021/07/26 07:07:17;;;;;;;0.10;0.10;;;19.50;99.90;;;;;;4879166;29;20027;-75
2021/07/26 07:09:43;;;;;;;0.10;0.10;;;19.50;99.90;;;;;;4877918;29;20025;-74
2021/07/26 07:12:08;;;;;;;0.10;0.10;;;19.60;99.90;;;;;;4878925;29;20029;-75
2021/07/26 07:14:35;;;;;;;0.10;0.10;;;19.80;99.90;;;;;;4877932;29;20033;-75
2021/07/26 07:17:02;;;;;;;0.00;0.00;;;19.80;99.90;;;;;;4877338;29;20075;-75
2021/07/26 07:19:27;;;;;;;0.00;0.00;;;19.70;99.90;;;;;;4862123;29;20428;-75
2021/07/26 07:21:53;;;;;;;0.85;0.85;;;19.70;99.90;;;;;;4877672;29;20112;-75
2021/07/26 07:24:19;;;;;;;0.10;0.10;;;19.80;99.90;;;;;;4877322;29;20061;-74
2021/07/26 07:26:45;;;;;;;5.13;0.45;;;19.80;99.90;;;;;;4878939;29;20081;-75
2021/07/26 07:29:10;;;;;;;0.30;0.30;;;19.70;99.90;;;;;;4877775;29;20032;-74
2021/07/26 07:31:37;;;;;;;0.00;0.00;;;19.70;99.90;;;;;;4870336;29;20334;-75
2021/07/26 07:34:04;;;;;;;2.35;0.95;;;19.60;99.90;;;;;;4863347;29;20037;-74
2021/07/26 07:36:30;;;;;;;0.00;0.00;;;19.70;99.90;;;;;;4878896;29;20077;-74
2021/07/26 07:38:56;;;;;;;0.10;0.10;;;19.70;99.90;;;;;;4878505;29;20029;-74
2021/07/26 07:41:23;;;;;;;0.00;0.00;;;19.80;99.90;;;;;;4878621;29;20104;-74
2021/07/26 07:43:49;;;;;;;0.10;0.10;;;19.80;99.90;;;;;;4877410;29;20099;-74
2021/07/26 07:46:17;;;;;;;0.00;0.00;;;19.90;99.90;;;;;;4877672;29;20671;-74
2021/07/26 07:48:43;;;;;;;0.10;0.10;;;19.80;99.90;;;;;;4878198;29;20488;-74
2021/07/26 07:51:09;;;;;;;2.65;1.17;;;19.80;99.90;;;;;;4878556;29;20033;-74
2021/07/26 07:53:35;;;;;;;0.10;0.10;;;19.90;99.90;;;;;;4878483;29;20032;-74
2021/07/26 07:56:01;;;;;;;0.00;0.00;;;19.80;99.90;;;;;;4878828;29;20140;-75
2021/07/26 07:58:27;;;;;;;0.00;0.00;;;19.80;99.90;;;;;;4878474;29;20153;-75
2021/07/26 08:00:56;;;;;;;0.15;0.15;;;19.90;99.90;;;;;;4878675;29;20024;-74
2021/07/26 08:03:22;;;;;;;0.10;0.10;;;20.00;99.90;;;;;;4878295;29;20429;-74
2021/07/26 08:05:51;;;;;;;0.10;0.10;;;20.00;99.90;;;;;;4862104;29;20022;-75
2021/07/26 08:08:17;;;;;;;0.10;0.10;;;20.10;99.90;;;;;;4877310;29;20025;-74
2021/07/26 08:10:43;;;;;;;0.05;0.05;;;20.10;99.90;;;;;;4878420;29;20025;-74
2021/07/26 08:13:09;;;;;;;0.10;0.10;;;20.20;99.90;;;;;;4878317;29;20021;-75
2021/07/26 08:15:35;;;;;;;0.00;0.00;;;20.20;99.90;;;;;;4878422;29;20029;-74
2021/07/26 08:18:02;;;;;;;0.08;0.08;;;20.10;99.90;;;;;;4878459;29;20033;-74
2021/07/26 08:20:29;;;;;;;0.20;0.20;;;20.10;99.90;;;;;;4871903;29;20074;-74
2021/07/26 08:22:55;;;;;;;0.00;0.00;;;20.00;99.90;;;;;;4859523;29;20037;-74
2021/07/26 08:25:20;;;;;;;0.10;0.10;;;20.10;99.90;;;;;;4859718;29;20030;-75
2021/07/26 08:27:56;;;;;;;0.00;0.00;;;20.40;99.90;;;;;;4859766;29;20037;-74
2021/07/26 08:30:29;;;;;;;0.20;0.20;;;20.40;99.90;;;;;;4860767;29;20041;-74
2021/07/26 08:32:55;;;;;;;0.00;0.00;;;20.50;99.90;;;;;;4859360;29;20029;-73
2021/07/26 08:35:22;;;;;;;0.00;0.00;;;20.80;99.90;;;;;;4859593;29;20038;-74
2021/07/26 08:37:49;;;;;;;0.00;0.00;;;21.00;99.90;;;;;;4859655;29;20025;-74
2021/07/26 08:40:16;;;;;;;0.00;0.00;;;21.40;99.90;;;;;;4859471;29;20033;-74
2021/07/26 08:42:42;;;;;;;0.93;0.30;;;21.70;99.90;;;;;;4859325;29;20121;-74
2021/07/26 08:45:11;;;;;;;0.00;0.00;;;22.00;99.90;;;;;;4859494;29;20025;-73
2021/07/26 08:47:45;;;;;;;0.00;0.00;;;22.20;99.90;;;;;;4862792;29;20038;-73
2021/07/26 08:50:19;;;;;;;0.00;0.00;;;22.60;99.90;;;;;;4862098;29;20301;-74
2021/07/26 08:52:49;;;;;;;2.90;1.38;;;22.70;99.90;;;;;;4863026;29;20033;-73
2021/07/26 08:55:21;;;;;;;0.13;0.10;;;22.90;99.90;;;;;;4863234;29;20041;-73
2021/07/26 08:57:48;;;;;;;0.10;0.10;;;23.00;99.90;;;;;;4863177;29;20424;-73
2021/07/26 09:00:19;;;;;;;0.20;0.20;;;23.30;99.90;;;;;;4862974;29;20108;-73
2021/07/26 09:02:45;;;;;;;0.00;0.00;;;23.60;99.90;;;;;;4863027;29;20330;-73
2021/07/26 09:05:14;;;;;;;2.28;0.65;;;24.00;99.90;;;;;;4871551;29;20026;-73
2021/07/26 09:07:41;;;;;;;0.52;0.52;;;24.30;99.90;;;;;;4881554;29;20454;-74
2021/07/26 09:10:12;;;;;;;0.00;0.00;;;24.40;99.90;;;;;;4881471;29;20029;-74
2021/07/26 09:12:40;;;;;;;1.33;1.23;;;24.60;99.90;;;;;;4878489;29;20486;-74
2021/07/26 09:15:07;;;;;;;0.90;0.52;;;24.90;99.90;;;;;;4880929;29;20037;-74
2021/07/26 09:17:43;;;;;;;0.03;0.03;;;24.80;99.50;;;;;;4881314;29;20236;-74
2021/07/26 09:20:10;;;;;;;0.25;0.25;;;24.80;99.40;;;;;;4881412;29;20048;-73
2021/07/26 09:22:37;;;;;;;0.65;0.57;;;24.90;99.90;;;;;;4881045;29;20497;-73
2021/07/26 09:25:24;;;;;;;0.10;0.10;;;25.10;98.30;;;;;;4881199;29;20029;-73
2021/07/26 09:28:16;;;;;;;0.30;0.30;;;25.40;98.20;;;;;;4881289;29;20453;-74
2021/07/26 09:30:49;;;;;;;0.75;0.47;;;25.70;95.80;;;;;;4867216;29;20040;-73
2021/07/26 09:33:19;;;;;;;0.65;0.47;;;25.10;93.30;;;;;;4860136;29;20065;-73
2021/07/26 09:35:45;;;;;;;0.00;0.00;;;25.20;93.90;;;;;;4862576;29;20032;-73
2021/07/26 09:38:13;;;;;;;0.10;0.10;;;25.70;93.70;;;;;;4888492;29;20040;-74
2021/07/26 09:40:45;;;;;;;0.10;0.10;;;26.20;92.80;;;;;;4862433;29;20022;-73
2021/07/26 09:43:29;;;;;;;0.10;0.10;;;26.50;90.00;;;;;;4861078;29;20033;-73
2021/07/26 09:45:56;;;;;;;0.10;0.10;;;26.90;88.10;;;;;;4861036;29;20338;-74
2021/07/26 09:48:27;;;;;;;0.20;0.20;;;27.00;84.70;;;;;;4860928;29;20037;-74
2021/07/26 09:50:54;;;;;;;;;;;27.30;82.50;;;;;;4861441;29;20072;-74
2021/07/26 09:53:23;;;;;;;0.88;0.75;;;27.50;79.60;;;;;;4862002;29;20361;-73
2021/07/26 09:55:57;;;;;;;1.65;0.98;;;27.00;78.80;;;;;;4861598;29;20030;-74
2021/07/26 09:58:37;;;;;;;0.80;0.38;;;27.20;78.40;;;;;;4860890;29;20036;-74
2021/07/26 10:01:07;;;;;;;1.10;0.80;;;27.10;78.20;;;;;;4845117;29;20030;-74
2021/07/26 10:03:36;;;;;;;0.38;0.30;;;27.40;78.20;;;;;;4862606;29;20029;-74
2021/07/26 10:06:02;;;;;;;0.00;0.00;;;27.60;78.20;;;;;;4861241;29;20077;-74
2021/07/26 10:08:29;;;;;;;0.30;0.30;;;27.50;76.90;;;;;;4862320;29;20033;-74
2021/07/26 10:10:56;;;;;;;0.00;0.00;;;27.50;73.20;;;;;;4862205;29;20025;-74
2021/07/26 10:13:22;;;;;;;0.20;0.20;;;27.80;72.80;;;;;;4862961;29;20061;-74
2021/07/26 10:15:49;;;;;;;0.00;0.00;;;28.00;71.90;;;;;;4845928;29;20081;-74
2021/07/26 10:18:15;;;;;;;0.00;0.00;;;28.20;70.70;;;;;;4860987;29;20166;-74
2021/07/26 10:20:56;;;;;;;0.10;0.10;;;28.40;72.20;;;;;;4861997;29;20038;-75
2021/07/26 10:23:31;;;;;;;0.70;0.47;;;28.60;69.70;;;;;;4861540;29;20076;-75
2021/07/26 10:26:00;;;;;;;0.00;0.00;;;28.30;69.50;;;;;;4861738;29;20030;-74
2021/07/26 10:28:33;;;;;;;0.00;0.00;;;27.60;71.80;;;;;;4861617;29;20030;-75
2021/07/26 10:30:59;;;;;;;0.15;0.10;;;27.00;72.50;;;;;;4861453;29;20036;-74
2021/07/26 10:33:25;;;;;;;0.00;0.00;;;26.60;74.40;;;;;;4860342;29;20030;-75
2021/07/26 10:35:52;;;;;;;0.00;0.00;;;26.40;79.00;;;;;;4861545;29;20032;-74
2021/07/26 10:38:45;;;;;;;1.13;1.05;;;26.30;79.00;;;;;;4860174;29;20021;-74
2021/07/26 10:41:42;;;;;;;0.85;0.45;;;27.00;77.50;;;;;;4839762;29;20053;-75
2021/07/26 10:44:09;;;;;;;0.20;0.20;;;27.30;73.90;;;;;;4861264;29;20502;-74
2021/07/26 10:46:53;;;;;;;0.10;0.10;;;27.90;69.80;;;;;;4861123;29;20041;-75
2021/07/26 10:49:45;;;;;;;0.10;0.10;;;28.10;68.90;;;;;;4861253;29;20022;-75
2021/07/26 10:52:25;;;;;;;0.73;0.73;;;28.20;67.60;;;;;;4860870;29;20555;-75
2021/07/26 10:54:54;;;;;;;0.00;0.00;;;28.60;66.60;;;;;;4860992;29;20032;-74
2021/07/26 10:57:38;;;;;;;0.32;0.20;;;28.60;64.30;;;;;;4861083;29;20025;-74
2021/07/26 11:00:13;;;;;;;0.20;0.20;;;28.60;63.80;;;;;;4859555;29;20040;-75
2021/07/26 11:02:40;;;;;;;0.08;0.08;;;29.00;63.70;;;;;;4859511;29;20026;-75
2021/07/26 11:05:27;;;;;;;0.75;0.57;;;29.20;64.60;;;;;;4860764;29;20371;-75
2021/07/26 11:08:11;;;;;;;0.00;0.00;;;29.60;64.10;;;;;;4859482;29;20025;-75
2021/07/26 11:10:48;;;;;;;0.30;0.30;;;29.90;64.10;;;;;;4859486;29;20033;-74
2021/07/26 11:13:15;;;;;;;0.40;0.38;;;29.40;62.80;;;;;;4860504;29;20371;-75
2021/07/26 11:15:51;;;;;;;0.30;0.30;;;29.20;64.00;;;;;;4844026;29;20043;-74
2021/07/26 11:18:20;;;;;;;0.00;0.00;;;28.70;64.60;;;;;;4860684;29;20029;-74
2021/07/26 11:20:57;;;;;;;0.22;0.20;;;28.00;66.10;;;;;;4859127;29;20048;-74
2021/07/26 11:23:45;;;;;;;0.25;0.25;;;27.50;68.10;;;;;;4860435;29;20030;-74
2021/07/26 11:26:18;;;;;;;0.08;0.08;;;27.30;68.20;;;;;;4860557;29;20052;-75
2021/07/26 11:28:44;;;;;;;1.17;0.70;;;27.30;69.00;;;;;;4859235;29;20033;-75
2021/07/26 11:31:11;;;;;;;0.00;0.00;;;27.20;70.10;;;;;;4860304;29;20033;-74
2021/07/26 11:33:37;;;;;;;0.00;0.00;;;27.10;69.30;;;;;;4859064;29;20479;-74
2021/07/26 11:36:09;;;;;;;0.00;0.00;;;27.40;69.10;;;;;;4860388;29;20032;-75
2021/07/26 11:39:02;;;;;;;0.13;0.13;;;27.90;67.60;;;;;;4860181;29;20029;-75
2021/07/26 11:41:29;;;;;;;0.38;0.20;;;28.30;67.00;;;;;;4860221;29;20440;-75
2021/07/26 11:43:55;;;;;;;0.03;0.03;;;28.60;66.40;;;;;;4860289;29;20605;-74
2021/07/26 11:46:22;;;;;;;0.00;0.00;;;28.80;67.80;;;;;;4860268;29;20092;-75
2021/07/26 11:48:59;;;;;;;0.22;0.22;;;28.70;66.60;;;;;;4860098;29;20488;-74
2021/07/26 11:51:33;;;;;;;0.45;0.40;;;29.00;65.40;;;;;;4860091;29;20032;-75
2021/07/26 11:54:00;;;;;;;14.90;7.93;;;29.10;64.40;;;;;;4859810;29;20029;-75
2021/07/26 11:56:29;;;;;;;0.00;0.00;;;28.90;65.20;;;;;;4860163;29;20033;-74
2021/07/26 11:59:21;;;;;;;0.32;0.15;;;28.70;64.60;;;;;;4858686;29;20144;-74
2021/07/26 12:01:57;;;;;;;0.10;0.10;;;28.90;64.60;;;;;;4843064;29;20137;-74
2021/07/26 12:04:27;;;;;;;0.00;0.00;;;29.00;64.10;;;;;;4858681;29;20520;-75
2021/07/26 12:07:05;;;;;;;2.92;2.75;;;29.00;62.20;;;;;;4859934;29;20097;-75
2021/07/26 12:09:31;;;;;;;1.38;0.70;;;28.90;63.10;;;;;;4859893;29;20029;-74
2021/07/26 12:12:11;;;;;;;0.00;0.00;;;28.60;63.60;;;;;;4859813;29;20040;-75
2021/07/26 12:14:37;;;;;;;0.00;0.00;;;28.20;64.30;;;;;;4858606;29;20033;-74
2021/07/26 12:17:05;;;;;;;1.75;0.82;;;28.40;66.00;;;;;;4859894;29;20040;-74
2021/07/26 12:19:33;;;;;;;1.17;1.05;;;28.20;64.30;;;;;;4859669;29;20033;-74
2021/07/26 12:22:41;;;;;;;0.00;0.00;;;28.10;65.50;;;;;;4858931;29;20053;-74
2021/07/26 12:25:25;;;;;;;0.85;0.65;;;28.20;68.40;;;;;;4832278;29;20080;-74
2021/07/26 12:28:04;;;;;;;0.10;0.10;;;28.60;67.60;;;;;;4858484;29;20037;-74
2021/07/26 12:30:37;;;;;;;0.95;0.85;;;28.20;67.00;;;;;;4858530;29;20550;-74
2021/07/26 12:33:04;;;;;;;0.00;0.00;;;27.90;68.40;;;;;;4859202;29;20040;-74
2021/07/26 12:35:32;;;;;;;0.10;0.10;;;28.10;69.00;;;;;;4859731;29;20116;-74
2021/07/26 12:38:17;;;;;;;0.43;0.43;;;28.20;68.10;;;;;;4859685;29;20084;-74
2021/07/26 12:41:04;;;;;;;0.20;0.20;;;28.20;66.20;;;;;;4859413;29;20082;-74
2021/07/26 12:43:31;;;;;;;3.22;1.23;;;28.30;65.90;;;;;;4859256;29;20478;-74
2021/07/26 12:46:01;;;;;;;0.08;0.08;;;28.40;64.60;;;;;;4858250;29;20116;-74
2021/07/26 12:48:29;;;;;;;3.42;0.85;;;28.20;64.40;;;;;;4858313;29;20044;-75
2021/07/26 12:50:56;;;;;;;0.08;0.08;;;28.00;66.00;;;;;;4842844;29;20057;-74
2021/07/26 12:53:22;;;;;;;0.35;0.35;;;27.40;68.10;;;;;;4859210;29;20057;-74
2021/07/26 12:55:49;;;;;;;0.00;0.00;;;27.30;69.10;;;;;;4859598;29;20034;-74
2021/07/26 12:58:18;;;;;;;1.38;1.35;;;27.20;69.40;;;;;;4859344;29;20040;-74
2021/07/26 13:00:46;;;;;;;0.00;0.00;;;27.20;69.50;;;;;;4859185;29;20036;-74
2021/07/26 13:03:15;;;;;;;3.08;1.90;;;27.30;68.90;;;;;;4858968;29;20022;-74
2021/07/26 13:05:45;;;;;;;0.10;0.10;;;27.20;68.80;;;;;;4859465;29;20047;-74
2021/07/26 13:08:12;;;;;;;0.25;0.15;;;26.90;70.30;;;;;;4859213;29;20037;-74